Terminal Aerodrome Forecast
Issued by NWS

Current Version | Previous Version | Graphics & Text | Print | Product List | Glossary Off
Versions: 1 2 3 4 5 6 7 8 9 10 11 12 13 14 15 16 17 18 19 20

000
FTUS41 KRLX 282320
TAFCKB
TAF
KCKB 282320Z 2900/2924 33006KT P6SM SCT015 BKN025
      TEMPO 2901/2902 BKN015
     FM290200 34004KT P6SM OVC015
     FM290700 36002KT P6SM OVC007
     FM291300 01004KT P6SM OVC010
     FM291400 01005KT P6SM BKN020
     FM291600 02006KT P6SM SCT025=

USA.gov is the U.S. government's official web portal to all federal, state and local government web resources and services.